createdAt,value
2022-10-18T00:00:59.801Z,8.10
2022-10-18T00:03:29.383Z,8.10
2022-10-18T00:05:57.553Z,8.10
2022-10-18T00:08:25.622Z,8.10
2022-10-18T00:10:53.710Z,8.10
2022-10-18T00:13:21.917Z,8.10
2022-10-18T00:15:50.993Z,8.10
2022-10-18T00:18:21.194Z,8.00
2022-10-18T00:20:59.052Z,8.10
2022-10-18T00:23:27.687Z,8.10
2022-10-18T00:26:02.626Z,8.10
2022-10-18T00:28:31.485Z,8.10
2022-10-18T00:30:59.549Z,8.00
2022-10-18T00:33:27.742Z,8.10
2022-10-18T00:35:55.746Z,8.10
2022-10-18T00:38:25.269Z,8.10
2022-10-18T00:40:53.306Z,8.10
2022-10-18T00:43:21.491Z,8.00
2022-10-18T00:45:49.523Z,8.00
2022-10-18T00:48:19.496Z,8.00
2022-10-18T00:50:48.354Z,8.00
2022-10-18T00:53:17.351Z,8.10
2022-10-18T00:55:47.125Z,8.10
2022-10-18T00:58:16.581Z,7.90
2022-10-18T01:00:44.864Z,8.00
2022-10-18T01:03:15.881Z,8.00
2022-10-18T01:05:46.862Z,8.00
2022-10-18T01:08:25.913Z,8.00
2022-10-18T01:11:01.794Z,8.00
2022-10-18T01:13:36.685Z,7.90
2022-10-18T01:16:10.318Z,7.90
2022-10-18T01:18:41.303Z,8.00
2022-10-18T01:21:12.540Z,8.00
2022-10-18T01:23:51.919Z,8.00
2022-10-18T01:26:31.389Z,7.90
2022-10-18T01:29:03.578Z,7.90
2022-10-18T01:31:33.732Z,7.90
2022-10-18T01:34:06.599Z,7.90
2022-10-18T01:36:36.120Z,7.90
2022-10-18T01:39:06.373Z,7.90
2022-10-18T01:41:35.349Z,7.90
2022-10-18T01:44:04.606Z,7.80
2022-10-18T01:46:34.615Z,7.90
2022-10-18T01:49:02.854Z,7.90
2022-10-18T01:51:32.202Z,7.90
2022-10-18T01:54:00.674Z,7.90
2022-10-18T01:56:33.107Z,7.90
2022-10-18T01:59:07.509Z,7.90
2022-10-18T02:01:42.996Z,7.90
2022-10-18T02:04:15.238Z,7.80
2022-10-18T02:06:46.059Z,7.80
2022-10-18T02:09:17.611Z,7.90
2022-10-18T02:11:47.569Z,7.90
2022-10-18T02:14:17.111Z,7.90
2022-10-18T02:16:48.631Z,7.80
2022-10-18T02:19:18.426Z,7.90
2022-10-18T02:21:48.280Z,7.90
2022-10-18T02:24:16.521Z,7.80
2022-10-18T02:26:44.650Z,7.80
2022-10-18T02:29:12.701Z,7.70
2022-10-18T02:31:44.446Z,7.70
2022-10-18T02:34:17.970Z,7.70
2022-10-18T02:36:47.774Z,7.80
2022-10-18T02:39:17.966Z,7.80
2022-10-18T02:41:46.284Z,7.70
2022-10-18T02:44:14.462Z,7.70
2022-10-18T02:46:42.753Z,7.80
2022-10-18T02:49:10.786Z,7.80
2022-10-18T02:51:40.219Z,7.70
2022-10-18T02:54:08.622Z,7.70
2022-10-18T02:56:36.823Z,7.80
2022-10-18T02:59:07.461Z,7.80
2022-10-18T03:01:39.119Z,7.80
2022-10-18T03:04:07.370Z,7.80
2022-10-18T03:06:36.025Z,7.80
2022-10-18T03:09:05.753Z,7.80
2022-10-18T03:11:34.123Z,7.80
2022-10-18T03:14:02.418Z,7.80
2022-10-18T03:16:30.426Z,7.70
2022-10-18T03:18:58.623Z,7.70
2022-10-18T03:21:26.643Z,7.60
2022-10-18T03:23:54.905Z,7.70
2022-10-18T03:26:24.301Z,7.60
2022-10-18T03:28:52.488Z,7.60
2022-10-18T03:31:20.633Z,7.70
2022-10-18T03:33:48.782Z,7.70
2022-10-18T03:36:16.770Z,7.70
2022-10-18T03:38:44.967Z,7.70
2022-10-18T03:41:12.987Z,7.70
2022-10-18T03:43:42.577Z,7.70
2022-10-18T03:46:10.718Z,7.70
2022-10-18T03:48:38.989Z,7.60
2022-10-18T03:51:07.010Z,7.70
2022-10-18T03:53:35.366Z,7.60
2022-10-18T03:56:03.386Z,7.70
2022-10-18T03:58:31.615Z,7.60
2022-10-18T04:01:01.043Z,7.60
2022-10-18T04:03:29.201Z,7.60
2022-10-18T04:05:57.224Z,7.60
2022-10-18T04:08:25.486Z,7.60
2022-10-18T04:10:53.706Z,7.70
2022-10-18T04:13:21.985Z,7.60
2022-10-18T04:15:50.008Z,7.60
2022-10-18T04:18:19.729Z,7.60
2022-10-18T04:20:47.800Z,7.60
2022-10-18T04:23:16.317Z,7.60
2022-10-18T04:25:44.348Z,7.60
2022-10-18T04:28:12.605Z,7.60
2022-10-18T04:30:40.624Z,7.60
2022-10-18T04:33:09.036Z,7.60
2022-10-18T04:35:38.626Z,7.60
2022-10-18T04:38:06.890Z,7.60
2022-10-18T04:40:34.992Z,7.60
2022-10-18T04:43:03.039Z,7.60
2022-10-18T04:45:31.161Z,7.60
2022-10-18T04:47:59.227Z,7.60
2022-10-18T04:50:27.334Z,7.60
2022-10-18T04:52:56.841Z,7.60
2022-10-18T04:55:24.971Z,7.60
2022-10-18T04:57:54.258Z,7.50
2022-10-18T05:00:22.472Z,7.50
2022-10-18T05:02:50.790Z,7.40
2022-10-18T05:05:18.922Z,7.40
2022-10-18T05:07:46.994Z,7.30
2022-10-18T05:10:16.598Z,7.20
2022-10-18T05:12:45.026Z,7.30
2022-10-18T05:15:13.110Z,7.20
2022-10-18T05:17:41.172Z,7.20
2022-10-18T05:20:09.737Z,7.30
2022-10-18T05:22:37.802Z,7.30
2022-10-18T05:25:06.211Z,7.30
2022-10-18T05:27:35.692Z,7.20
2022-10-18T05:30:05.597Z,7.30
2022-10-18T05:32:34.759Z,7.30
2022-10-18T05:35:03.089Z,7.30
2022-10-18T05:37:31.092Z,7.30
2022-10-18T05:39:59.260Z,7.30
2022-10-18T05:42:27.580Z,7.30
2022-10-18T05:44:56.961Z,7.30
2022-10-18T05:47:25.235Z,7.30
2022-10-18T05:49:55.320Z,7.30
2022-10-18T05:52:23.368Z,7.30
2022-10-18T05:54:53.295Z,7.40
2022-10-18T05:57:21.299Z,7.40
2022-10-18T05:59:49.672Z,7.40
2022-10-18T06:02:19.245Z,7.30
2022-10-18T06:04:47.454Z,7.40
2022-10-18T06:07:15.548Z,7.40
2022-10-18T06:09:43.691Z,7.40
2022-10-18T06:12:13.082Z,7.40
2022-10-18T06:14:41.301Z,7.30
2022-10-18T06:17:09.328Z,7.40
2022-10-18T06:19:41.152Z,7.40
2022-10-18T06:22:09.289Z,7.40
2022-10-18T06:24:37.433Z,7.40
2022-10-18T06:27:09.398Z,7.40
2022-10-18T06:29:38.128Z,7.40
2022-10-18T06:32:07.078Z,7.40
2022-10-18T06:34:35.154Z,7.40
2022-10-18T06:37:05.139Z,7.30
2022-10-18T06:39:33.230Z,7.30
2022-10-18T06:42:01.584Z,7.30
2022-10-18T06:44:31.725Z,7.30
2022-10-18T06:46:59.769Z,7.20
2022-10-18T06:49:30.595Z,7.10
2022-10-18T06:51:58.648Z,7.20
2022-10-18T06:54:28.574Z,7.10
2022-10-18T06:56:57.135Z,7.10
2022-10-18T06:59:28.884Z,7.10
2022-10-18T07:01:59.534Z,7.20
2022-10-18T07:04:29.231Z,7.30
2022-10-18T07:06:57.850Z,7.30
2022-10-18T07:09:25.930Z,7.30
2022-10-18T07:11:56.848Z,7.30
2022-10-18T07:14:28.884Z,7.30
2022-10-18T07:16:59.616Z,7.30
2022-10-18T07:19:27.682Z,7.40
2022-10-18T07:21:55.817Z,7.40
2022-10-18T07:24:24.219Z,7.40
2022-10-18T07:26:52.263Z,7.40
2022-10-18T07:29:21.823Z,7.50
2022-10-18T07:31:49.939Z,7.50
2022-10-18T07:34:18.001Z,7.60
2022-10-18T07:36:46.052Z,7.60
2022-10-18T07:39:14.222Z,7.60
2022-10-18T07:41:42.246Z,7.60
2022-10-18T07:44:11.089Z,7.70
2022-10-18T07:46:40.622Z,7.70
2022-10-18T07:49:08.791Z,7.80
2022-10-18T07:51:36.913Z,7.80
2022-10-18T07:54:07.940Z,7.80
2022-10-18T07:56:36.074Z,7.90
2022-10-18T07:59:04.119Z,7.90
2022-10-18T08:01:32.238Z,7.90
2022-10-18T08:04:06.936Z,7.90
2022-10-18T08:06:35.111Z,7.90
2022-10-18T08:09:03.197Z,8.10
2022-10-18T08:11:33.278Z,8.10
2022-10-18T08:14:01.303Z,8.10
2022-10-18T08:19:01.921Z,8.30
2022-10-18T08:21:30.037Z,8.40
2022-10-18T08:23:58.082Z,8.30
2022-10-18T08:26:26.204Z,8.30
2022-10-18T08:29:09.827Z,8.30
2022-10-18T08:31:42.295Z,8.40
2022-10-18T08:34:14.791Z,8.50
2022-10-18T08:36:45.232Z,8.50
2022-10-18T08:39:13.468Z,8.60
2022-10-18T08:41:51.280Z,8.60
2022-10-18T08:44:21.535Z,8.60
2022-10-18T08:46:50.663Z,8.70
2022-10-18T08:49:24.054Z,8.70
2022-10-18T08:51:52.471Z,8.70
2022-10-18T08:54:24.122Z,8.70
2022-10-18T08:56:57.941Z,8.70
2022-10-18T08:59:26.082Z,8.90
2022-10-18T09:02:00.887Z,8.90
2022-10-18T09:04:35.772Z,9.10
2022-10-18T09:07:11.112Z,9.00
2022-10-18T09:09:42.562Z,9.00
2022-10-18T09:12:17.943Z,9.10
2022-10-18T09:14:53.568Z,9.10
2022-10-18T09:17:29.463Z,9.10
2022-10-18T09:20:04.359Z,9.10
2022-10-18T09:22:40.030Z,9.10
2022-10-18T09:25:14.397Z,9.10
2022-10-18T09:27:47.779Z,9.20
2022-10-18T09:30:20.191Z,9.20
2022-10-18T09:32:51.878Z,9.20
2022-10-18T09:35:22.783Z,9.20
2022-10-18T09:37:51.885Z,9.20
2022-10-18T09:40:21.986Z,9.30
2022-10-18T09:42:54.596Z,9.20
2022-10-18T09:45:25.905Z,9.20
2022-10-18T09:47:58.046Z,9.20
2022-10-18T09:50:29.568Z,9.20
2022-10-18T09:53:02.924Z,9.40
2022-10-18T09:55:33.757Z,9.60
2022-10-18T09:58:03.173Z,9.70
2022-10-18T10:00:34.299Z,9.60
2022-10-18T10:03:03.011Z,9.50
2022-10-18T10:05:33.475Z,9.60
2022-10-18T10:08:02.622Z,9.50
2022-10-18T10:10:31.874Z,9.60
2022-10-18T10:13:07.177Z,9.70
2022-10-18T10:15:38.223Z,9.70
2022-10-18T10:18:18.609Z,9.80
2022-10-18T10:20:49.622Z,9.50
2022-10-18T10:23:21.205Z,9.60
2022-10-18T10:25:52.144Z,9.70
2022-10-18T10:28:21.730Z,9.70
2022-10-18T10:30:50.011Z,9.60
2022-10-18T10:33:32.661Z,9.60
2022-10-18T10:36:16.934Z,9.70
2022-10-18T10:38:45.207Z,9.70
2022-10-18T10:41:23.149Z,9.60
2022-10-18T10:43:52.187Z,9.50
2022-10-18T10:46:21.653Z,9.70
2022-10-18T10:49:00.590Z,9.80
2022-10-18T10:51:44.122Z,9.80
2022-10-18T10:54:15.785Z,10.00
2022-10-18T10:56:53.093Z,10.20
2022-10-18T10:59:22.205Z,10.30
2022-10-18T11:01:51.569Z,10.20
2022-10-18T11:04:27.002Z,10.30
2022-10-18T11:06:59.065Z,10.30
2022-10-18T11:09:41.949Z,10.20
2022-10-18T11:12:24.854Z,10.40
2022-10-18T11:14:55.990Z,10.40
2022-10-18T11:17:28.837Z,10.40
2022-10-18T11:20:02.297Z,10.50
2022-10-18T11:22:35.013Z,10.20
2022-10-18T11:25:03.789Z,10.20
2022-10-18T11:27:36.346Z,10.40
2022-10-18T11:30:15.511Z,10.60
2022-10-18T11:32:48.339Z,10.70
2022-10-18T11:35:30.865Z,10.70
2022-10-18T11:38:08.129Z,10.80
2022-10-18T11:40:45.914Z,10.90
2022-10-18T11:43:18.204Z,10.90
2022-10-18T11:45:49.698Z,10.90
2022-10-18T11:48:37.939Z,10.90
2022-10-18T11:51:09.342Z,11.00
2022-10-18T11:53:43.062Z,10.70
2022-10-18T11:56:14.866Z,10.70
2022-10-18T11:58:48.137Z,10.70
2022-10-18T12:01:24.678Z,10.90
2022-10-18T12:04:03.115Z,10.70
2022-10-18T12:06:34.325Z,10.60
2022-10-18T12:09:06.160Z,10.50
2022-10-18T12:11:35.184Z,10.70
2022-10-18T12:14:03.876Z,10.80
2022-10-18T12:16:50.358Z,10.60
2022-10-18T12:19:26.185Z,10.60
2022-10-18T12:21:56.803Z,10.60
2022-10-18T12:24:29.566Z,10.90
2022-10-18T12:26:59.566Z,10.50
2022-10-18T12:29:30.892Z,10.40
2022-10-18T12:32:00.911Z,10.50
2022-10-18T12:34:32.274Z,10.40
2022-10-18T12:37:07.627Z,10.70
2022-10-18T12:39:50.435Z,10.50
2022-10-18T12:42:28.414Z,10.40
2022-10-18T12:45:03.438Z,10.50
2022-10-18T12:47:32.355Z,10.40
2022-10-18T12:50:01.867Z,10.30
2022-10-18T12:52:34.091Z,10.30
2022-10-18T12:55:05.703Z,10.10
2022-10-18T12:57:48.612Z,9.90
2022-10-18T13:00:31.464Z,9.90
2022-10-18T13:03:17.467Z,9.90
2022-10-18T13:05:56.580Z,10.10
2022-10-18T13:08:39.833Z,10.00
2022-10-18T13:11:26.382Z,10.00
2022-10-18T13:14:02.653Z,10.20
2022-10-18T13:16:37.664Z,10.20
2022-10-18T13:19:18.620Z,10.10
2022-10-18T13:21:51.366Z,10.20
2022-10-18T13:24:28.064Z,10.10
2022-10-18T13:27:34.514Z,10.20
2022-10-18T13:30:16.390Z,10.00
2022-10-18T13:32:48.659Z,10.00
2022-10-18T13:35:34.338Z,10.20
2022-10-18T13:38:03.185Z,10.00
2022-10-18T13:40:31.506Z,10.10
2022-10-18T13:43:19.675Z,9.90
2022-10-18T13:45:58.302Z,10.00
2022-10-18T13:48:44.667Z,10.00
2022-10-18T13:51:30.618Z,10.00
2022-10-18T13:54:02.313Z,10.20
2022-10-18T13:56:51.183Z,10.20
2022-10-18T14:02:50.407Z,10.20
2022-10-18T14:05:26.000Z,10.00
2022-10-18T14:07:58.862Z,9.90
2022-10-18T14:10:50.320Z,9.70
2022-10-18T14:13:22.831Z,9.70
2022-10-18T14:15:51.626Z,9.70
2022-10-18T14:18:21.568Z,9.70
2022-10-18T14:21:12.776Z,9.60
2022-10-18T14:23:43.273Z,9.60
2022-10-18T14:26:14.397Z,9.50
2022-10-18T14:28:59.109Z,9.50
2022-10-18T14:31:28.433Z,9.30
2022-10-18T14:33:58.871Z,9.50
2022-10-18T14:36:30.642Z,9.50
2022-10-18T14:39:00.406Z,9.50
2022-10-18T14:41:29.524Z,9.50
2022-10-18T14:44:13.510Z,9.40
2022-10-18T14:46:43.722Z,9.30
2022-10-18T14:49:12.704Z,9.40
2022-10-18T14:51:43.608Z,9.30
2022-10-18T14:56:48.975Z,9.30
2022-10-18T14:59:18.895Z,9.30
2022-10-18T15:01:55.171Z,9.30
2022-10-18T15:04:27.807Z,9.30
2022-10-18T15:06:58.337Z,9.30
2022-10-18T15:11:57.879Z,9.10
2022-10-18T15:14:27.707Z,9.20
2022-10-18T15:16:59.680Z,9.10
2022-10-18T15:19:31.789Z,9.20
2022-10-18T15:25:04.919Z,9.10
2022-10-18T15:27:34.050Z,9.00
2022-10-18T15:30:08.609Z,9.00
2022-10-18T15:32:37.921Z,8.90
2022-10-18T15:35:09.862Z,8.90
2022-10-18T15:37:41.735Z,8.90
2022-10-18T15:40:20.267Z,8.90
2022-10-18T15:42:49.077Z,8.90
2022-10-18T15:45:31.506Z,8.80
2022-10-18T15:48:00.939Z,8.70
2022-10-18T15:50:41.159Z,8.80
2022-10-18T15:53:39.246Z,8.70
2022-10-18T15:56:11.544Z,8.70
2022-10-18T15:58:41.315Z,8.80
2022-10-18T16:01:14.860Z,8.80
2022-10-18T16:03:43.114Z,8.70
2022-10-18T16:06:16.011Z,8.70
2022-10-18T16:08:47.014Z,8.60
2022-10-18T16:11:17.070Z,8.60
2022-10-18T16:13:45.897Z,8.60
2022-10-18T16:16:18.183Z,8.70
2022-10-18T16:18:49.572Z,8.60
2022-10-18T16:21:19.853Z,8.60
2022-10-18T16:23:48.219Z,8.50
2022-10-18T16:26:18.870Z,8.50
2022-10-18T16:28:46.992Z,8.50
2022-10-18T16:31:16.964Z,8.40
2022-10-18T16:33:45.382Z,8.40
2022-10-18T16:36:15.861Z,8.30
2022-10-18T16:38:44.446Z,8.30
2022-10-18T16:41:13.354Z,8.20
2022-10-18T16:43:43.303Z,8.20
2022-10-18T16:46:14.429Z,8.20
2022-10-18T16:48:42.444Z,8.20
2022-10-18T16:51:11.113Z,8.20
2022-10-18T16:53:39.242Z,8.20
2022-10-18T16:56:08.284Z,8.20
2022-10-18T16:58:36.395Z,8.20
2022-10-18T17:01:08.862Z,8.20
2022-10-18T17:03:37.314Z,8.20
2022-10-18T17:06:05.566Z,8.20
2022-10-18T17:08:33.823Z,8.10
2022-10-18T17:11:02.510Z,8.20
2022-10-18T17:13:30.780Z,8.10
2022-10-18T17:16:03.474Z,8.10
2022-10-18T17:18:33.454Z,8.10
2022-10-18T17:21:03.392Z,8.10
2022-10-18T17:23:34.380Z,8.10
2022-10-18T17:26:26.242Z,8.10
2022-10-18T17:28:51.011Z,8.20
2022-10-18T17:31:19.260Z,8.10
2022-10-18T17:33:48.950Z,8.20
2022-10-18T17:36:17.089Z,8.20
2022-10-18T17:38:46.826Z,8.20
2022-10-18T17:41:14.916Z,8.20
2022-10-18T17:43:46.009Z,8.10
2022-10-18T17:46:14.334Z,8.10
2022-10-18T17:48:42.518Z,8.20
2022-10-18T17:51:13.165Z,8.30
2022-10-18T17:53:41.329Z,8.30
2022-10-18T17:56:09.723Z,8.30
2022-10-18T17:58:37.801Z,8.30
2022-10-18T18:01:14.797Z,8.30
2022-10-18T18:03:42.940Z,8.30
2022-10-18T18:06:16.845Z,8.30
2022-10-18T18:08:45.156Z,8.20
2022-10-18T18:11:13.522Z,8.20
2022-10-18T18:13:43.186Z,8.20
2022-10-18T18:16:12.505Z,8.30
2022-10-18T18:18:41.777Z,8.40
2022-10-18T18:21:09.934Z,8.40
2022-10-18T18:23:39.699Z,8.30
2022-10-18T18:26:07.803Z,8.40
2022-10-18T18:28:36.877Z,8.40
2022-10-18T18:31:08.528Z,8.40
2022-10-18T18:33:37.012Z,8.40
2022-10-18T18:36:06.843Z,8.40
2022-10-18T18:38:35.902Z,8.40
2022-10-18T18:41:09.214Z,8.40
2022-10-18T18:43:37.874Z,8.40
2022-10-18T18:46:08.378Z,8.40
2022-10-18T18:48:37.207Z,8.40
2022-10-18T18:51:06.397Z,8.40
2022-10-18T18:53:34.662Z,8.50
2022-10-18T18:56:05.258Z,8.50
2022-10-18T18:58:36.292Z,8.10
2022-10-18T19:01:08.017Z,7.60
2022-10-18T19:03:36.511Z,7.10
2022-10-18T19:06:05.239Z,7.00
2022-10-18T19:08:40.699Z,6.80
2022-10-18T19:11:09.523Z,7.00
2022-10-18T19:13:39.437Z,6.80
2022-10-18T19:16:21.276Z,6.80
2022-10-18T19:18:57.192Z,6.90
2022-10-18T19:21:28.316Z,7.10
2022-10-18T19:23:57.429Z,7.10
2022-10-18T19:26:27.332Z,6.90
2022-10-18T19:28:57.163Z,7.00
2022-10-18T19:31:25.546Z,7.10
2022-10-18T19:33:59.658Z,7.10
2022-10-18T19:36:30.961Z,7.00
2022-10-18T19:38:59.259Z,7.00
2022-10-18T19:41:28.812Z,6.90
2022-10-18T19:43:58.685Z,7.00
2022-10-18T19:46:26.818Z,6.80
2022-10-18T19:48:55.127Z,6.80
2022-10-18T19:51:27.696Z,7.10
2022-10-18T19:53:56.637Z,7.20
2022-10-18T19:56:25.101Z,7.20
2022-10-18T19:58:56.112Z,7.20
2022-10-18T20:01:27.013Z,7.30
2022-10-18T20:03:55.246Z,7.30
2022-10-18T20:06:23.690Z,7.40
2022-10-18T20:08:51.925Z,7.40
2022-10-18T20:11:20.662Z,7.40
2022-10-18T20:13:49.351Z,7.40
2022-10-18T20:16:18.242Z,7.50
2022-10-18T20:18:50.561Z,7.60
2022-10-18T20:21:18.686Z,7.60
2022-10-18T20:23:47.001Z,7.60
2022-10-18T20:26:18.155Z,7.50
2022-10-18T20:28:56.130Z,7.40
2022-10-18T20:31:25.460Z,7.30
2022-10-18T20:33:58.910Z,7.30
2022-10-18T20:36:27.805Z,7.30
2022-10-18T20:38:56.127Z,7.30
2022-10-18T20:41:25.042Z,7.40
2022-10-18T20:43:53.385Z,7.40
2022-10-18T20:46:21.805Z,7.50
2022-10-18T20:48:50.851Z,7.50
2022-10-18T20:51:20.372Z,7.50
2022-10-18T20:53:48.617Z,7.50
2022-10-18T20:56:17.486Z,7.50
2022-10-18T20:58:46.267Z,7.50
2022-10-18T21:01:18.276Z,7.50
2022-10-18T21:03:48.213Z,7.50
2022-10-18T21:06:17.006Z,7.50
2022-10-18T21:08:46.884Z,7.40
2022-10-18T21:11:15.210Z,7.40
2022-10-18T21:13:43.451Z,7.50
2022-10-18T21:16:11.539Z,7.50
2022-10-18T21:18:40.540Z,7.50
2022-10-18T21:21:09.979Z,7.50
2022-10-18T21:23:38.739Z,7.60
2022-10-18T21:26:08.990Z,7.60
2022-10-18T21:28:37.140Z,7.60
2022-10-18T21:31:12.870Z,7.30
2022-10-18T21:33:41.254Z,7.20
2022-10-18T21:36:09.357Z,7.20
2022-10-18T21:38:37.629Z,7.20
2022-10-18T21:41:11.142Z,7.20
2022-10-18T21:43:40.883Z,7.20
2022-10-18T21:46:11.992Z,7.20
2022-10-18T21:48:44.360Z,7.20
2022-10-18T21:51:12.618Z,7.20
2022-10-18T21:53:43.108Z,7.20
2022-10-18T21:56:13.288Z,7.20
2022-10-18T21:58:41.882Z,7.20
2022-10-18T22:01:10.074Z,7.30
2022-10-18T22:03:38.634Z,7.30
2022-10-18T22:06:09.546Z,7.30
2022-10-18T22:08:37.600Z,7.30
2022-10-18T22:11:06.115Z,7.30
2022-10-18T22:13:35.745Z,7.30
2022-10-18T22:16:04.495Z,7.20
2022-10-18T22:18:33.092Z,7.30
2022-10-18T22:21:02.145Z,7.20
2022-10-18T22:23:33.768Z,7.30
2022-10-18T22:26:05.028Z,7.20
2022-10-18T22:28:33.386Z,7.30
2022-10-18T22:31:03.274Z,7.30
2022-10-18T22:33:31.692Z,7.20
2022-10-18T22:35:59.843Z,7.30
2022-10-18T22:38:27.884Z,7.20
2022-10-18T22:40:56.123Z,7.20
2022-10-18T22:43:24.159Z,7.20
2022-10-18T22:45:53.978Z,7.10
2022-10-18T22:48:23.647Z,7.10
2022-10-18T22:50:51.749Z,7.10
2022-10-18T22:53:20.031Z,7.20
2022-10-18T22:55:51.207Z,7.20
2022-10-18T22:58:22.084Z,7.20
2022-10-18T23:00:50.326Z,7.20
2022-10-18T23:03:19.640Z,7.20
2022-10-18T23:05:49.143Z,7.10
2022-10-18T23:08:17.415Z,7.20
2022-10-18T23:10:45.470Z,7.20
2022-10-18T23:13:14.462Z,7.20
2022-10-18T23:15:45.642Z,7.20
2022-10-18T23:18:13.693Z,7.20
2022-10-18T23:20:41.929Z,7.20
2022-10-18T23:23:11.719Z,7.20
2022-10-18T23:25:39.949Z,7.30
2022-10-18T23:28:08.149Z,7.20
2022-10-18T23:30:38.768Z,6.70
2022-10-18T23:33:06.885Z,6.50
2022-10-18T23:35:35.036Z,6.60
2022-10-18T23:38:03.129Z,6.50
2022-10-18T23:40:32.791Z,6.60
2022-10-18T23:43:00.826Z,6.70
2022-10-18T23:45:29.129Z,6.70
2022-10-18T23:47:59.519Z,6.70
2022-10-18T23:50:27.710Z,6.70
2022-10-18T23:52:55.832Z,6.70
2022-10-18T23:55:24.131Z,6.80
2022-10-18T23:57:53.605Z,6.80
